Sevilla, España

1:24 PM CEST en Septiembre 16, 2014 (GMT +0200)
Parque Alcosa | Change Station
CLOSE
Current Station
Estación meteorológica personal
Location: Sevilla, ANDALUC�A
Altura: 69 ft
Estaciones meteorológicas cercanas
Aviso en curso: Thunderstorms

Alt 69 ft 37.41 °N, 5.93 °W | Updated 4 minutes ago

Nublado
Nublado
73.4 ° F
Sensación térmica 76 ° F
N
6.0
Viento Variable Viento desde SO
Gusts 6.0 mph

Hoy
Alta -- | Baja -- ° F
--% Posibilidad de precipitaciones
Ayer
Alta -- | Baja -- ° F
Precip. -- pul
8:06 AM 8:30 PM
Cuarto menguante, 46% visible
Presión 29.83 pul
Visibilidad 2.5 Millas
Nubes Nubes dispersas 3400 ft
Nubes dispersas 4500 ft
Índice de calor 76 ° F
Punto de rocío 62 ° F
Humedad 68%
Precipitaciones 0.00 pul
Espesor de la nieve No disponible.
UV 7 de una escala de 12
Polen No disponible.
Calidad del aire No disponible.
Flu Activity No disponible.
SPECI LEMO 161115Z 28013G25KT 250V320 4000 TS -SHRA SCT034CB SCT045 20/16 Q1010 TEMPO 3000 SHRA TS SCT020CB

More Conditions Fewer Conditions

Presión 29.83 pul
Visibilidad 2.5 Millas
Nubes Nubes dispersas 3400 ft
Nubes dispersas 4500 ft
Índice de calor 76 ° F
Punto de rocío 62 ° F
Humedad 68%
Precipitaciones 0.00 pul
Espesor de la nieve No disponible.
UV 7 de una escala de 12
Polen No disponible.
Calidad del aire No disponible.
Flu Activity No disponible.
SPECI LEMO 161115Z 28013G25KT 250V320 4000 TS -SHRA SCT034CB SCT045 20/16 Q1010 TEMPO 3000 SHRA TS SCT020CB

More Conditions Fewer Conditions

10-Day Weather Forecast

Almanac

Astronomía

Sep. 16, 2014 Salida Puesta
Hora real 8:06 AM CEST 8:30 PM CEST
Crepúsculo civil 7:40 AM CEST 8:56 PM CEST
Crepúsculo náutico 7:09 AM CEST 9:26 PM CEST
Crepúsculo astronómico 6:37 AM CEST 9:58 PM CEST
Luna 1:09 AM CEST 3:37 PM CEST
Horas de luz 13h 16m
Horas de luz
12h 23m
Tomorrow will be 2m 22s shorter.
Cuarto menguante, 46% of the Moon is Illuminated
Hoy
Cuarto menguante
Sep 24
Nueva
Oct 1
Cuarto creciente
Oct 8
Luna llena
Oct 15
Cuarto menguante

Extremos de ayer

Máximos del país Bajas del país

Community

WunderPhotos

Upload Photos

1,753,724 ¡fotos cargadas!

WunderBlogs® & News

By Dr. Jeff Masters
Director of Meteorology, Weather Underground
By Kari Strenfel
Meteorologist, Weather Underground
By Christopher C. Burt
Weather Historian, Weather Underground
September 16, 2014
September 16, 2014
September 16, 2014

Nearby

Calidad del aire

Not available.

Grosos de nieve

Not available.

Actividad de terremotos

Ciudad Distance Mag. Tiempo y dato
No hay informes recientes de la actividad sísmica.
Magnitud mínima muestra es 2,5.

Temperaturas de aguas costeras

Lugar Temperatura
Sin partes meteorológicos de las estaciones

Estaciones meteorológicas cercanas